Time,TemperatureF,DewpointF,PressureIn,WindDirection,WindDirectionDegrees,WindSpeedMPH,WindSpeedGustMPH,Humidity,HourlyPrecipIn,Conditions,Clouds,dailyrainin,SoftwareType,DateUTC
2013-08-05 00:01:00,56.0,53.0,-100.00,SE,145,0.0,1.0,89,-99.99,,,-99.99,,2013-08-05 05:01:00,
2013-08-05 00:22:00,56.0,53.0,-100.00,SE,145,0.0,1.0,89,-99.99,,,-99.99,,2013-08-05 05:22:00,
2013-08-05 00:32:00,56.0,53.0,-100.00,SE,145,0.0,1.0,89,-99.99,,,-99.99,,2013-08-05 05:32:00,
2013-08-05 00:43:00,56.0,53.0,-100.00,SE,145,0.0,1.0,89,-99.99,,,-99.99,,2013-08-05 05:43:00,
2013-08-05 00:53:00,56.0,53.0,-100.00,SE,145,0.0,1.0,89,-99.99,,,-99.99,,2013-08-05 05:53:00,
2013-08-05 01:01:00,56.0,53.0,-100.00,SE,130,1.0,2.0,90,-99.99,,,-99.99,,2013-08-05 06:01:00,
2013-08-05 01:22:00,56.0,53.0,-100.00,SE,130,1.0,2.0,90,-99.99,,,-99.99,,2013-08-05 06:22:00,
2013-08-05 01:32:00,56.0,53.0,-100.00,SE,130,1.0,2.0,90,-99.99,,,-99.99,,2013-08-05 06:32:00,
2013-08-05 01:43:00,56.0,53.0,-100.00,SE,130,1.0,2.0,90,-99.99,,,-99.99,,2013-08-05 06:43:00,
2013-08-05 01:52:00,56.0,53.0,-100.00,SE,130,1.0,2.0,90,-99.99,,,-99.99,,2013-08-05 06:52:00,
2013-08-05 02:02:00,55.0,52.0,-100.00,SE,125,2.0,4.0,90,-99.99,,,-99.99,,2013-08-05 07:02:00,
2013-08-05 02:22:00,55.0,52.0,-100.00,SE,125,2.0,4.0,90,-99.99,,,-99.99,,2013-08-05 07:22:00,
2013-08-05 02:33:00,55.0,52.0,-100.00,SE,125,2.0,4.0,90,-99.99,,,-99.99,,2013-08-05 07:33:00,
2013-08-05 02:43:00,55.0,52.0,-100.00,SE,125,2.0,4.0,90,-99.99,,,-99.99,,2013-08-05 07:43:00,
2013-08-05 02:53:00,55.0,52.0,-100.00,SE,125,2.0,4.0,90,-99.99,,,-99.99,,2013-08-05 07:53:00,
2013-08-05 03:01:00,55.0,52.0,-100.00,SE,140,2.0,5.0,90,-99.99,,,-99.99,,2013-08-05 08:01:00,
2013-08-05 03:22:00,55.0,52.0,-100.00,SE,140,2.0,5.0,90,-99.99,,,-99.99,,2013-08-05 08:22:00,
2013-08-05 03:34:00,55.0,52.0,-100.00,SE,140,2.0,5.0,90,-99.99,,,-99.99,,2013-08-05 08:34:00,
2013-08-05 03:52:00,55.0,52.0,-100.00,SE,140,2.0,5.0,90,-99.99,,,-99.99,,2013-08-05 08:52:00,
2013-08-05 04:00:00,55.0,52.0,-100.00,SSE,155,1.0,3.0,90,-99.99,,,-99.99,,2013-08-05 09:00:00,
2013-08-05 04:28:00,55.0,52.0,-100.00,SSE,155,1.0,3.0,90,-99.99,,,-99.99,,2013-08-05 09:28:00,
2013-08-05 04:42:00,55.0,52.0,-100.00,SSE,155,1.0,3.0,90,-99.99,,,-99.99,,2013-08-05 09:42:00,
2013-08-05 04:48:00,55.0,52.0,-100.00,SSE,155,1.0,3.0,90,-99.99,,,-99.99,,2013-08-05 09:48:00,
2013-08-05 04:53:00,55.0,52.0,-100.00,SSE,155,1.0,3.0,90,-99.99,,,-99.99,,2013-08-05 09:53:00,
2013-08-05 05:02:00,55.0,52.0,-100.00,ESE,115,2.0,3.0,90,-99.99,,,-99.99,,2013-08-05 10:02:00,
2013-08-05 05:28:00,55.0,52.0,-100.00,ESE,115,2.0,3.0,90,-99.99,,,-99.99,,2013-08-05 10:28:00,
2013-08-05 05:36:00,55.0,52.0,-100.00,ESE,115,2.0,3.0,90,-99.99,,,-99.99,,2013-08-05 10:36:00,
2013-08-05 05:50:00,55.0,52.0,-100.00,ESE,115,2.0,3.0,90,-99.99,,,-99.99,,2013-08-05 10:50:00,
2013-08-05 06:37:00,56.0,53.0,-100.00,SSE,155,1.0,2.0,90,-99.99,,,-99.99,,2013-08-05 11:37:00,
2013-08-05 06:49:00,56.0,53.0,-100.00,SSE,155,1.0,2.0,90,-99.99,,,-99.99,,2013-08-05 11:49:00,
2013-08-05 06:56:00,56.0,53.0,-100.00,SSE,155,1.0,2.0,90,-99.99,,,-99.99,,2013-08-05 11:56:00,
2013-08-05 07:01:00,56.0,53.0,-100.00,SSE,150,0.0,3.0,90,-99.99,,,-99.99,,2013-08-05 12:01:00,
2013-08-05 07:28:00,56.0,53.0,-100.00,SSE,150,0.0,3.0,90,-99.99,,,-99.99,,2013-08-05 12:28:00,
2013-08-05 07:34:00,56.0,53.0,-100.00,SSE,150,0.0,3.0,90,-99.99,,,-99.99,,2013-08-05 12:34:00,
2013-08-05 07:52:00,56.0,53.0,-100.00,SSE,150,0.0,3.0,90,-99.99,,,-99.99,,2013-08-05 12:52:00,
2013-08-05 08:00:00,56.0,53.0,-100.00,SSE,150,0.0,3.0,90,-99.99,,,-99.99,,2013-08-05 13:00:00,
2013-08-05 08:29:00,57.0,54.0,-100.00,ESE,115,1.0,1.0,90,-99.99,,,-99.99,,2013-08-05 13:29:00,
2013-08-05 08:47:00,57.0,54.0,-100.00,ESE,115,1.0,1.0,90,-99.99,,,-99.99,,2013-08-05 13:47:00,
2013-08-05 08:54:00,57.0,54.0,-100.00,ESE,115,1.0,1.0,90,-99.99,,,-99.99,,2013-08-05 13:54:00,
2013-08-05 09:00:00,58.0,55.0,-100.00,SE,135,6.0,9.0,90,-99.99,,,-99.99,,2013-08-05 14:00:00,
2013-08-05 09:41:00,58.0,55.0,-100.00,SE,135,6.0,9.0,90,-99.99,,,-99.99,,2013-08-05 14:41:00,
2013-08-05 09:49:00,58.0,55.0,-100.00,SE,135,6.0,9.0,90,-99.99,,,-99.99,,2013-08-05 14:49:00,
2013-08-05 09:54:00,58.0,55.0,-100.00,SE,135,6.0,9.0,90,-99.99,,,-99.99,,2013-08-05 14:54:00,
2013-08-05 10:00:00,63.0,58.0,-100.00,SE,130,6.0,14.0,84,-99.99,,,-99.99,,2013-08-05 15:00:00,
2013-08-05 10:25:00,63.0,58.0,-100.00,SE,130,6.0,14.0,84,-99.99,,,-99.99,,2013-08-05 15:25:00,
2013-08-05 10:39:00,63.0,58.0,-100.00,SE,130,6.0,14.0,84,-99.99,,,-99.99,,2013-08-05 15:39:00,
2013-08-05 10:50:00,63.0,58.0,-100.00,SE,130,6.0,14.0,84,-99.99,,,-99.99,,2013-08-05 15:50:00,
2013-08-05 10:58:00,63.0,58.0,-100.00,SE,130,6.0,14.0,84,-99.99,,,-99.99,,2013-08-05 15:58:00,
2013-08-05 11:01:00,68.0,57.0,-100.00,South,180,4.0,11.0,69,-99.99,,,-99.99,,2013-08-05 16:01:00,
2013-08-05 11:28:00,68.0,57.0,-100.00,South,180,4.0,11.0,69,-99.99,,,-99.99,,2013-08-05 16:28:00,
2013-08-05 11:33:00,68.0,57.0,-100.00,South,180,4.0,11.0,69,-99.99,,,-99.99,,2013-08-05 16:33:00,
2013-08-05 11:45:00,68.0,57.0,-100.00,South,180,4.0,11.0,69,-99.99,,,-99.99,,2013-08-05 16:45:00,
2013-08-05 12:00:00,68.0,57.0,-100.00,South,180,4.0,11.0,69,-99.99,,,-99.99,,2013-08-05 17:00:00,
2013-08-05 12:01:00,69.0,57.0,-100.00,SSE,160,4.0,14.0,66,-99.99,,,-99.99,,2013-08-05 17:01:00,
2013-08-05 12:22:00,69.0,57.0,-100.00,SSE,160,4.0,14.0,66,-99.99,,,-99.99,,2013-08-05 17:22:00,
2013-08-05 12:39:00,69.0,57.0,-100.00,SSE,160,4.0,14.0,66,-99.99,,,-99.99,,2013-08-05 17:39:00,
2013-08-05 12:50:00,69.0,57.0,-100.00,SSE,160,4.0,14.0,66,-99.99,,,-99.99,,2013-08-05 17:50:00,
2013-08-05 13:00:00,69.0,57.0,-100.00,SSE,160,4.0,14.0,66,-99.99,,,-99.99,,2013-08-05 18:00:00,
2013-08-05 13:01:00,68.0,55.0,-100.00,SSE,150,7.0,14.0,63,-99.99,,,-99.99,,2013-08-05 18:01:00,
2013-08-05 13:26:00,68.0,55.0,-100.00,SSE,150,7.0,14.0,63,-99.99,,,-99.99,,2013-08-05 18:26:00,
2013-08-05 13:45:00,68.0,55.0,-100.00,SSE,150,7.0,14.0,63,-99.99,,,-99.99,,2013-08-05 18:45:00,
2013-08-05 13:54:00,68.0,55.0,-100.00,SSE,150,7.0,14.0,63,-99.99,,,-99.99,,2013-08-05 18:54:00,
2013-08-05 14:00:00,69.0,56.0,-100.00,South,170,4.0,11.0,64,-99.99,,,-99.99,,2013-08-05 19:00:00,
2013-08-05 14:39:00,69.0,56.0,-100.00,South,170,4.0,11.0,64,-99.99,,,-99.99,,2013-08-05 19:39:00,
2013-08-05 14:53:00,69.0,56.0,-100.00,South,170,4.0,11.0,64,-99.99,,,-99.99,,2013-08-05 19:53:00,
2013-08-05 15:29:00,67.0,57.0,-100.00,SSE,165,6.0,14.0,71,-99.99,,,-99.99,,2013-08-05 20:29:00,
2013-08-05 15:40:00,67.0,57.0,-100.00,SSE,165,6.0,14.0,71,-99.99,,,-99.99,,2013-08-05 20:40:00,
2013-08-05 15:48:00,67.0,57.0,-100.00,SSE,165,6.0,14.0,71,-99.99,,,-99.99,,2013-08-05 20:48:00,
2013-08-05 16:00:00,67.0,60.0,-100.00,SSE,155,5.0,10.0,78,-99.99,,,-99.99,,2013-08-05 21:00:00,
2013-08-05 16:48:00,67.0,60.0,-100.00,SSE,155,5.0,10.0,78,-99.99,,,-99.99,,2013-08-05 21:48:00,
2013-08-05 16:54:00,67.0,60.0,-100.00,SSE,155,5.0,10.0,78,-99.99,,,-99.99,,2013-08-05 21:54:00,
2013-08-05 17:00:00,68.0,60.0,-100.00,SE,140,6.0,12.0,74,-99.99,,,-99.99,,2013-08-05 22:00:00,
2013-08-05 17:28:00,68.0,60.0,-100.00,SE,140,6.0,12.0,74,-99.99,,,-99.99,,2013-08-05 22:28:00,
2013-08-05 17:38:00,68.0,60.0,-100.00,SE,140,6.0,12.0,74,-99.99,,,-99.99,,2013-08-05 22:38:00,
2013-08-05 17:53:00,68.0,60.0,-100.00,SE,140,6.0,12.0,74,-99.99,,,-99.99,,2013-08-05 22:53:00,
2013-08-05 19:24:00,66.0,61.0,-100.00,South,180,1.0,6.0,83,-99.99,,,-99.99,,2013-08-06 00:24:00,
2013-08-05 19:37:00,66.0,61.0,-100.00,South,180,1.0,6.0,83,-99.99,,,-99.99,,2013-08-06 00:37:00,
2013-08-05 19:47:00,66.0,61.0,-100.00,South,180,1.0,6.0,83,-99.99,,,-99.99,,2013-08-06 00:47:00,
2013-08-05 19:57:00,66.0,61.0,-100.00,South,180,1.0,6.0,83,-99.99,,,-99.99,,2013-08-06 00:57:00,
2013-08-05 20:01:00,65.0,62.0,-100.00,SE,145,4.0,6.0,88,-99.99,,,-99.99,,2013-08-06 01:01:00,
2013-08-05 20:28:00,65.0,62.0,-100.00,SE,145,4.0,6.0,88,-99.99,,,-99.99,,2013-08-06 01:28:00,
2013-08-05 20:43:00,65.0,62.0,-100.00,SE,145,4.0,6.0,88,-99.99,,,-99.99,,2013-08-06 01:43:00,
2013-08-05 20:52:00,65.0,62.0,-100.00,SE,145,4.0,6.0,88,-99.99,,,-99.99,,2013-08-06 01:52:00,
2013-08-05 21:01:00,65.0,62.0,-100.00,SE,140,2.0,5.0,89,-99.99,,,-99.99,,2013-08-06 02:01:00,
2013-08-05 21:27:00,65.0,62.0,-100.00,SE,140,2.0,5.0,89,-99.99,,,-99.99,,2013-08-06 02:27:00,
2013-08-05 21:33:00,65.0,62.0,-100.00,SE,140,2.0,5.0,89,-99.99,,,-99.99,,2013-08-06 02:33:00,
2013-08-05 21:52:00,65.0,62.0,-100.00,SE,140,2.0,5.0,89,-99.99,,,-99.99,,2013-08-06 02:52:00,
2013-08-05 22:01:00,65.0,62.0,-100.00,SSE,150,2.0,4.0,89,-99.99,,,-99.99,,2013-08-06 03:01:00,
2013-08-05 22:27:00,65.0,62.0,-100.00,SSE,150,2.0,4.0,89,-99.99,,,-99.99,,2013-08-06 03:27:00,
2013-08-05 22:35:00,65.0,62.0,-100.00,SSE,150,2.0,4.0,89,-99.99,,,-99.99,,2013-08-06 03:35:00,
2013-08-05 22:45:00,65.0,62.0,-100.00,SSE,150,2.0,4.0,89,-99.99,,,-99.99,,2013-08-06 03:45:00,
2013-08-05 22:52:00,65.0,62.0,-100.00,SSE,150,2.0,4.0,89,-99.99,,,-99.99,,2013-08-06 03:52:00,
2013-08-05 23:01:00,66.0,62.0,-100.00,SE,140,1.0,3.0,89,-99.99,,,-99.99,,2013-08-06 04:01:00,
2013-08-05 23:22:00,66.0,62.0,-100.00,SE,140,1.0,3.0,89,-99.99,,,-99.99,,2013-08-06 04:22:00,
2013-08-05 23:33:00,66.0,62.0,-100.00,SE,140,1.0,3.0,89,-99.99,,,-99.99,,2013-08-06 04:33:00,
2013-08-05 23:44:00,66.0,62.0,-100.00,SE,140,1.0,3.0,89,-99.99,,,-99.99,,2013-08-06 04:44:00,
2013-08-05 23:53:00,66.0,62.0,-100.00,SE,140,1.0,3.0,89,-99.99,,,-99.99,,2013-08-06 04:53:00,